Time;durP1;ratioP1;P1;durP2;ratioP2;P2;SDS_P1;SDS_P2;PMS_P1;PMS_P2;Temp;Humidity;BMP_temperature;BMP_pressure;BME280_temperature;BME280_humidity;BME280_pressure;Samples;Min_cycle;Max_cycle;Signal;HPM_P1;HPM_P2
2023/05/18 00:00:40;;;;;;;5.43;4.13;;;;;;;9.29;74.46;99632.09;5027395;28;20096;-73
2023/05/18 00:03:06;;;;;;;6.68;4.90;;;;;;;9.30;74.36;99643.53;5027653;28;20042;-73
2023/05/18 00:05:33;;;;;;;6.65;4.95;;;;;;;9.28;74.42;99635.69;5027740;28;20045;-73
2023/05/18 00:08:01;;;;;;;5.82;4.20;;;;;;;9.28;74.20;99630.38;5027692;28;20045;-74
2023/05/18 00:10:29;;;;;;;6.47;4.00;;;;;;;9.26;74.06;99632.25;5027359;28;20038;-73
2023/05/18 00:12:56;;;;;;;7.25;4.22;;;;;;;9.28;74.31;99626.88;5027521;28;20198;-73
2023/05/18 00:15:23;;;;;;;5.55;4.43;;;;;;;9.27;74.19;99627.81;5027241;28;20061;-73
2023/05/18 00:17:52;;;;;;;8.20;4.65;;;;;;;9.28;74.14;99630.38;5027227;28;20049;-74
2023/05/18 00:20:20;;;;;;;6.10;4.43;;;;;;;9.12;74.08;99605.53;5027706;28;20202;-73
2023/05/18 00:22:49;;;;;;;6.85;3.80;;;;;;;9.26;73.95;99624.31;5027028;28;20068;-73
2023/05/18 00:25:16;;;;;;;7.10;4.53;;;;;;;9.26;74.03;99626.97;5027353;28;20049;-73
2023/05/18 00:27:44;;;;;;;11.45;4.43;;;;;;;9.27;74.15;99622.53;5027330;28;20048;-73
2023/05/18 00:30:12;;;;;;;9.85;4.65;;;;;;;9.15;73.92;99599.25;5026161;28;20048;-74
2023/05/18 00:32:39;;;;;;;6.32;4.00;;;;;;;9.28;73.78;99630.38;5026147;28;20048;-74
2023/05/18 00:35:06;;;;;;;5.72;4.13;;;;;;;9.28;73.82;99625.09;5027163;28;20048;-73
2023/05/18 00:37:33;;;;;;;9.38;4.88;;;;;;;9.28;73.74;99626.88;5027122;28;20055;-74
2023/05/18 00:40:00;;;;;;;8.88;4.25;;;;;;;9.26;73.79;99623.44;5025914;28;20042;-74
2023/05/18 00:42:27;;;;;;;6.70;3.80;;;;;;;9.27;73.69;99625.16;5026802;28;20052;-73
2023/05/18 00:44:55;;;;;;;6.45;3.72;;;;;;;9.26;73.61;99632.25;5025872;28;20125;-74
2023/05/18 00:47:22;;;;;;;9.57;4.85;;;;;;;9.27;73.57;99635.75;5025884;28;20051;-73
2023/05/18 00:49:49;;;;;;;9.13;4.72;;;;;;;9.28;73.76;99627.75;5025812;28;20045;-74
2023/05/18 00:52:16;;;;;;;7.78;4.35;;;;;;;9.29;73.64;99629.47;5027016;28;20113;-74
2023/05/18 00:54:43;;;;;;;5.97;3.90;;;;;;;9.29;73.60;99626.81;5025722;28;20042;-73
2023/05/18 00:57:10;;;;;;;7.88;3.88;;;;;;;9.30;73.43;99633.81;5027000;28;20049;-74
2023/05/18 00:59:37;;;;;;;7.55;3.85;;;;;;;9.30;73.38;99633.81;5025584;28;20121;-74
2023/05/18 01:02:08;;;;;;;7.07;4.50;;;;;;;9.31;73.34;99629.38;5026416;28;20041;-73
2023/05/18 01:04:36;;;;;;;8.48;4.68;;;;;;;9.28;73.22;99627.75;5026370;28;20049;-74
2023/05/18 01:07:05;;;;;;;6.60;3.88;;;;;;;9.13;73.02;99603.75;5025501;28;20042;-73
2023/05/18 01:09:32;;;;;;;6.80;4.60;;;;;;;9.25;73.00;99627.03;5025473;28;20088;-73
2023/05/18 01:12:06;;;;;;;8.27;5.00;;;;;;;9.25;73.07;99630.53;5025442;28;20042;-73
2023/05/18 01:14:37;;;;;;;6.53;4.20;;;;;;;9.25;73.16;99630.53;5026576;28;20293;-73
2023/05/18 01:17:20;;;;;;;8.60;4.60;;;;;;;9.26;72.69;99634.88;5026750;28;20042;-74
2023/05/18 01:20:11;;;;;;;7.50;4.18;;;;;;;9.26;72.43;99641.97;5026064;28;20042;-73
2023/05/18 01:22:49;;;;;;;6.05;4.07;;;;;;;8.85;72.61;99636.69;5025049;28;20068;-74
2023/05/18 01:25:28;;;;;;;10.30;4.80;;;;;;;9.21;72.99;99623.66;5025146;28;20042;-74
2023/05/18 01:27:58;;;;;;;5.03;3.90;;;;;;;9.13;73.17;99609.03;5026543;28;20389;-73
2023/05/18 01:30:26;;;;;;;9.77;4.13;;;;;;;9.25;73.18;99625.25;5026517;28;20092;-74
2023/05/18 01:32:53;;;;;;;8.00;4.30;;;;;;;9.23;72.91;99624.44;5025935;28;20052;-74
2023/05/18 01:35:19;;;;;;;8.13;4.85;;;;;;;9.07;72.97;99602.25;5025064;28;20042;-74
2023/05/18 01:37:46;;;;;;;7.70;4.72;;;;;;;9.22;72.85;99627.16;5026348;28;20055;-73
2023/05/18 01:40:13;;;;;;;7.60;4.38;;;;;;;9.23;72.96;99629.75;5025743;28;20105;-74
2023/05/18 01:42:46;;;;;;;8.93;4.15;;;;;;;9.07;72.76;99610.16;5024890;28;20073;-73
2023/05/18 01:45:21;;;;;;;8.98;4.32;;;;;;;9.20;72.63;99636.94;5025755;28;20049;-74
2023/05/18 01:47:51;;;;;;;11.00;5.05;;;;;;;9.19;72.96;99636.06;5024925;28;20193;-74
2023/05/18 01:50:23;;;;;;;7.47;3.75;;;;;;;9.18;72.77;99639.63;5026266;28;20050;-73
2023/05/18 01:52:54;;;;;;;4.78;3.63;;;;;;;8.93;72.78;99596.72;5025594;28;20045;-73
2023/05/18 01:55:22;;;;;;;8.63;5.00;;;;;;;9.19;72.92;99641.34;5024471;28;20117;-74
2023/05/18 01:57:52;;;;;;;8.75;5.15;;;;;;;8.92;72.59;99595.00;5026011;28;20038;-74
2023/05/18 02:00:23;;;;;;;8.45;4.20;;;;;;;9.17;72.65;99642.34;5025507;28;20046;-74
2023/05/18 02:02:50;;;;;;;8.23;4.45;;;;;;;9.18;72.54;99637.00;5025011;28;20042;-72
2023/05/18 02:05:16;;;;;;;6.55;4.00;;;;;;;9.19;72.68;99641.34;5025537;28;20298;-73
2023/05/18 02:07:46;;;;;;;6.97;4.75;;;;;;;9.20;72.58;99626.38;5026009;28;20054;-73
2023/05/18 02:10:13;;;;;;;7.50;4.40;;;;;;;9.19;72.59;99636.06;5024640;28;20034;-73
2023/05/18 02:12:40;;;;;;;6.68;4.15;;;;;;;8.93;72.63;99589.63;5025458;28;20115;-73
2023/05/18 02:15:08;;;;;;;7.13;4.85;;;;;;;9.18;72.46;99633.50;5025684;28;20041;-73
2023/05/18 02:17:37;;;;;;;7.47;3.90;;;;;;;9.17;72.20;99627.34;5025676;28;20205;-73
2023/05/18 02:20:06;;;;;;;6.82;4.07;;;;;;;9.03;72.28;99611.22;5025845;28;20050;-73
2023/05/18 02:22:33;;;;;;;7.10;4.20;;;;;;;9.17;72.14;99629.97;5024448;28;20064;-73
2023/05/18 02:25:00;;;;;;;7.30;3.92;;;;;;;9.17;72.19;99629.13;5025862;28;20045;-73
2023/05/18 02:27:27;;;;;;;9.20;4.20;;;;;;;9.13;72.07;99631.03;5024417;28;20088;-73
2023/05/18 02:29:54;;;;;;;4.85;3.45;;;;;;;9.13;72.36;99631.03;5025527;28;20045;-73
2023/05/18 02:32:20;;;;;;;6.25;3.85;;;;;;;9.02;72.24;99620.09;5025796;28;20049;-73
2023/05/18 02:34:51;;;;;;;7.78;4.47;;;;;;;9.13;71.70;99636.34;5025503;28;20050;-73
2023/05/18 02:37:18;;;;;;;9.30;4.40;;;;;;;9.12;71.79;99636.41;5025746;28;20069;-73
2023/05/18 02:39:45;;;;;;;7.13;4.50;;;;;;;9.11;71.76;99627.63;5024276;28;20049;-73
2023/05/18 02:42:12;;;;;;;7.57;3.85;;;;;;;9.08;71.71;99625.09;5025688;28;20042;-73
2023/05/18 02:44:40;;;;;;;7.00;4.05;;;;;;;9.08;71.78;99627.75;5024811;28;20037;-73
2023/05/18 02:47:07;;;;;;;5.88;3.67;;;;;;;9.08;71.79;99626.88;5025623;28;20050;-73
2023/05/18 02:49:34;;;;;;;4.85;3.70;;;;;;;9.07;71.43;99615.47;5025021;28;20061;-74
2023/05/18 02:52:02;;;;;;;7.47;3.75;;;;;;;9.06;71.54;99620.81;5024225;28;20324;-73
2023/05/18 02:54:30;;;;;;;8.07;4.30;;;;;;;9.04;71.32;99614.72;5025122;28;20056;-73
2023/05/18 02:56:57;;;;;;;8.98;4.00;;;;;;;9.01;71.13;99618.38;5025236;28;20045;-73
2023/05/18 02:59:24;;;;;;;6.03;4.10;;;;;;;8.99;71.48;99607.88;5025182;28;20069;-73
2023/05/18 03:01:51;;;;;;;5.47;3.55;;;;;;;8.99;71.58;99615.81;5025024;28;20046;-74
2023/05/18 03:04:18;;;;;;;5.20;4.03;;;;;;;9.00;71.20;99616.66;5024091;28;20124;-73
2023/05/18 03:06:46;;;;;;;7.18;3.95;;;;;;;8.98;71.29;99616.72;5024126;28;20121;-73
2023/05/18 03:09:14;;;;;;;4.88;3.70;;;;;;;8.99;71.22;99622.88;5027931;28;20104;-74
2023/05/18 03:11:41;;;;;;;10.30;4.22;;;;;;;9.01;71.23;99618.38;5028998;28;20034;-73
2023/05/18 03:14:07;;;;;;;5.75;4.15;;;;;;;8.97;71.02;99620.28;5028708;28;20041;-73
2023/05/18 03:16:37;;;;;;;8.10;4.30;;;;;;;8.97;71.02;99615.00;5028048;28;20241;-73
2023/05/18 03:19:04;;;;;;;4.70;3.53;;;;;;;6.69;70.99;99234.28;5028336;28;20046;-73
2023/05/18 03:21:32;;;;;;;8.80;4.32;;;;;;;9.00;71.20;99625.44;5028239;28;20137;-74
2023/05/18 03:23:59;;;;;;;6.82;4.22;;;;;;;8.20;71.07;99484.56;5028564;28;20050;-73
2023/05/18 03:26:29;;;;;;;6.10;3.88;;;;;;;9.00;70.75;99627.22;5028781;28;20052;-73
2023/05/18 03:28:56;;;;;;;7.50;3.55;;;;;;;9.00;70.68;99629.88;5028170;28;20297;-73
2023/05/18 03:31:23;;;;;;;6.25;4.22;;;;;;;9.01;70.75;99636.88;5028204;28;20059;-73
2023/05/18 03:33:50;;;;;;;7.20;4.25;;;;;;;9.02;70.63;99632.44;5027798;28;20038;-74
2023/05/18 03:36:16;;;;;;;7.88;3.95;;;;;;;8.85;70.72;99598.84;5028619;28;20293;-73
2023/05/18 03:38:44;;;;;;;7.60;4.15;;;;;;;9.03;70.66;99631.53;5028033;28;20327;-73
2023/05/18 03:41:11;;;;;;;6.13;3.53;;;;;;;9.03;70.62;99624.44;5027910;28;20251;-73
2023/05/18 03:43:39;;;;;;;7.40;3.78;;;;;;;9.06;70.48;99636.69;5027882;28;20046;-73
2023/05/18 03:46:06;;;;;;;7.05;3.50;;;;;;;9.06;70.40;99629.59;5027880;28;20053;-73
2023/05/18 03:48:32;;;;;;;7.13;3.50;;;;;;;9.07;70.16;99630.47;5028130;28;20046;-73
2023/05/18 03:50:59;;;;;;;7.55;4.45;;;;;;;9.04;70.10;99622.66;5028035;28;20038;-73
2023/05/18 03:53:28;;;;;;;7.30;3.00;;;;;;;9.05;70.12;99627.88;5028299;28;20050;-73
2023/05/18 03:55:55;;;;;;;10.07;4.03;;;;;;;9.05;69.99;99627.88;5026841;28;20220;-73
2023/05/18 03:58:22;;;;;;;6.75;3.75;;;;;;;9.06;69.97;99621.69;5027595;28;20049;-73
2023/05/18 04:00:51;;;;;;;5.32;3.40;;;;;;;9.08;69.96;99627.75;5027513;28;20041;-73
2023/05/18 04:03:20;;;;;;;9.07;4.40;;;;;;;9.08;69.96;99633.03;5027505;28;20118;-73
2023/05/18 04:05:48;;;;;;;9.68;4.60;;;;;;;9.09;69.81;99626.81;5028089;28;20317;-73
2023/05/18 04:08:15;;;;;;;5.85;4.30;;;;;;;9.11;69.75;99635.53;5027497;28;20360;-73
2023/05/18 04:10:42;;;;;;;6.90;3.72;;;;;;;9.13;69.67;99641.63;5027407;28;20030;-73
2023/05/18 04:13:09;;;;;;;6.88;3.88;;;;;;;9.14;69.55;99634.56;5027925;28;20065;-73
2023/05/18 04:15:36;;;;;;;7.43;3.55;;;;;;;9.15;69.41;99650.34;5027128;28;20310;-73
2023/05/18 04:18:04;;;;;;;9.15;3.28;;;;;;;8.92;69.20;99605.56;5027287;28;20049;-73
2023/05/18 04:20:31;;;;;;;9.00;3.92;;;;;;;9.15;69.36;99636.28;5026973;28;20065;-74
2023/05/18 04:22:57;;;;;;;9.15;4.13;;;;;;;8.87;69.12;99608.41;5026997;28;20057;-73
2023/05/18 04:25:26;;;;;;;9.75;4.22;;;;;;;9.17;69.11;99652.91;5026333;28;20175;-73
2023/05/18 04:27:53;;;;;;;9.48;4.57;;;;;;;9.18;69.02;99644.91;5026209;28;20310;-74
2023/05/18 04:30:22;;;;;;;7.28;4.25;;;;;;;8.66;68.94;99577.66;5026226;28;20072;-73
2023/05/18 04:32:48;;;;;;;8.35;3.55;;;;;;;9.20;69.04;99661.59;5027282;28;20105;-73
2023/05/18 04:35:17;;;;;;;9.00;4.68;;;;;;;9.19;68.79;99657.22;5027493;28;20063;-73
2023/05/18 04:37:44;;;;;;;6.05;3.83;;;;;;;9.20;68.91;99660.75;5026071;28;20314;-74
2023/05/18 04:40:12;;;;;;;9.85;4.10;;;;;;;9.21;68.64;99651.88;5027349;28;20104;-73
2023/05/18 04:42:44;;;;;;;6.30;3.72;;;;;;;8.87;68.72;99611.06;5027316;28;20100;-73
2023/05/18 04:45:15;;;;;;;9.75;4.07;;;;;;;9.19;68.49;99651.94;5025804;28;20042;-73
2023/05/18 04:47:45;;;;;;;6.20;3.22;;;;;;;8.31;68.52;99503.44;5026995;28;20037;-73
2023/05/18 04:50:13;;;;;;;7.95;3.55;;;;;;;9.20;68.39;99652.81;5025714;28;20042;-74
2023/05/18 04:52:46;;;;;;;8.13;3.85;;;;;;;9.20;68.49;99658.97;5027170;28;20290;-73
2023/05/18 04:55:13;;;;;;;12.65;4.00;;;;;;;9.20;68.46;99643.09;5026511;28;20052;-73
2023/05/18 04:57:40;;;;;;;9.60;4.35;;;;;;;9.21;68.30;99655.41;5026812;28;20092;-73
2023/05/18 05:00:08;;;;;;;7.28;3.83;;;;;;;9.22;68.21;99654.47;5026357;28;20042;-73
2023/05/18 05:02:35;;;;;;;8.90;3.58;;;;;;;9.20;68.26;99653.69;5025633;28;20323;-73
2023/05/18 05:05:02;;;;;;;7.25;3.63;;;;;;;9.21;68.29;99659.81;5026410;28;20045;-73
2023/05/18 05:07:28;;;;;;;6.20;3.53;;;;;;;9.21;68.36;99651.88;5026317;28;20088;-73
2023/05/18 05:09:56;;;;;;;7.03;4.07;;;;;;;9.21;68.15;99663.31;5025433;28;20057;-73
2023/05/18 05:12:23;;;;;;;9.10;3.95;;;;;;;9.22;68.13;99661.53;5026579;28;20293;-73
2023/05/18 05:14:50;;;;;;;11.43;4.10;;;;;;;9.24;67.89;99664.97;5026436;28;20046;-73
2023/05/18 05:17:17;;;;;;;8.38;4.05;;;;;;;9.24;67.83;99664.97;5025288;28;20108;-73
2023/05/18 05:19:43;;;;;;;8.20;3.75;;;;;;;9.23;67.78;99658.81;5025197;28;20038;-73
2023/05/18 05:22:10;;;;;;;6.80;3.75;;;;;;;9.24;67.80;99665.84;5025532;28;20050;-73
2023/05/18 05:24:36;;;;;;;7.18;3.35;;;;;;;9.27;68.11;99671.00;5026350;28;20042;-72
2023/05/18 05:27:05;;;;;;;8.63;4.28;;;;;;;9.02;67.64;99616.59;5026329;28;20045;-73
2023/05/18 05:29:32;;;;;;;9.50;3.58;;;;;;;9.26;67.91;99661.34;5026298;28;20052;-73
2023/05/18 05:31:58;;;;;;;9.90;4.00;;;;;;;9.26;67.97;99679.84;5025264;28;20084;-73
2023/05/18 05:34:25;;;;;;;8.90;3.85;;;;;;;9.29;67.89;99679.72;5026226;28;20205;-72
2023/05/18 05:36:52;;;;;;;7.05;3.75;;;;;;;9.29;67.71;99677.06;5025085;28;20052;-73
2023/05/18 05:39:19;;;;;;;9.70;4.63;;;;;;;9.30;67.55;99676.13;5026178;28;20319;-73
2023/05/18 05:41:46;;;;;;;8.30;4.20;;;;;;;9.30;67.43;99678.78;5026171;28;20056;-72
2023/05/18 05:44:14;;;;;;;8.93;4.28;;;;;;;9.31;67.33;99672.56;5025898;28;20051;-73
2023/05/18 05:46:41;;;;;;;10.55;3.63;;;;;;;9.30;67.48;99676.13;5026316;28;20060;-74
2023/05/18 05:49:08;;;;;;;10.88;3.80;;;;;;;9.31;67.70;99680.50;5025992;28;20053;-73
2023/05/18 05:51:35;;;;;;;10.63;3.55;;;;;;;9.36;67.52;99671.50;5024853;28;20056;-73
2023/05/18 05:54:01;;;;;;;6.82;3.47;;;;;;;9.37;67.10;99675.88;5025726;28;20065;-73
2023/05/18 05:56:28;;;;;;;9.27;4.10;;;;;;;9.35;67.14;99670.66;5024777;28;20049;-73
2023/05/18 05:58:55;;;;;;;8.15;3.67;;;;;;;9.37;67.13;99676.72;5025654;28;20050;-73
2023/05/18 06:01:23;;;;;;;10.85;4.22;;;;;;;9.36;66.90;99688.22;5025844;28;20113;-74
2023/05/18 06:03:50;;;;;;;8.93;3.75;;;;;;;9.35;66.96;99690.94;5024725;28;20041;-73
2023/05/18 06:06:17;;;;;;;7.50;3.65;;;;;;;9.35;66.74;99688.31;5024681;28;20053;-73
2023/05/18 06:08:44;;;;;;;6.65;3.60;;;;;;;9.34;66.76;99684.78;5026065;28;20045;-73
2023/05/18 06:11:11;;;;;;;7.53;3.72;;;;;;;9.23;66.81;99653.53;5025689;28;20302;-73
2023/05/18 06:13:38;;;;;;;10.05;3.53;;;;;;;9.37;66.61;99676.72;5025381;28;20085;-73
2023/05/18 06:16:05;;;;;;;11.43;4.13;;;;;;;9.40;66.63;99687.19;5024545;28;20184;-73
2023/05/18 06:18:34;;;;;;;8.55;3.45;;;;;;;9.42;66.44;99689.78;5025925;28;20038;-74
2023/05/18 06:21:00;;;;;;;9.80;3.63;;;;;;;9.42;66.60;99690.63;5024111;28;20226;-73
2023/05/18 06:23:27;;;;;;;8.10;3.30;;;;;;;9.45;66.56;99701.06;5024426;28;20088;-74
2023/05/18 06:25:54;;;;;;;6.78;4.30;;;;;;;9.46;66.43;99692.22;5025929;28;20048;-73
2023/05/18 06:28:21;;;;;;;9.35;3.85;;;;;;;9.46;66.41;99694.84;5025606;28;20038;-73
2023/05/18 06:30:48;;;;;;;7.50;3.83;;;;;;;9.46;66.42;99692.22;5025601;28;20049;-73
2023/05/18 06:33:15;;;;;;;9.00;3.72;;;;;;;9.49;66.38;99701.78;5025539;28;20050;-73
2023/05/18 06:35:43;;;;;;;7.43;4.05;;;;;;;9.51;66.38;99697.28;5025803;28;20045;-73
2023/05/18 06:38:10;;;;;;;10.95;4.10;;;;;;;9.51;66.52;99713.16;5024366;28;20046;-73
2023/05/18 06:40:37;;;;;;;8.50;4.00;;;;;;;9.53;66.29;99713.97;5025267;28;20054;-73
2023/05/18 06:43:03;;;;;;;6.00;3.90;;;;;;;9.52;66.32;99706.94;5027952;28;20046;-73
2023/05/18 06:45:30;;;;;;;8.02;4.75;;;;;;;9.52;66.23;99705.16;5029115;28;20050;-73
2023/05/18 06:47:57;;;;;;;6.93;3.60;;;;;;;9.54;66.13;99715.69;5029437;28;20046;-73
2023/05/18 06:50:24;;;;;;;5.88;3.33;;;;;;;9.53;66.32;99713.97;5028849;28;20045;-73
2023/05/18 06:52:52;;;;;;;6.43;3.85;;;;;;;9.53;66.29;99709.53;5029299;28;20037;-73
2023/05/18 06:55:19;;;;;;;10.65;4.13;;;;;;;9.54;66.30;99708.59;5029349;28;20045;-73
2023/05/18 06:57:45;;;;;;;9.80;4.90;;;;;;;9.55;66.39;99699.72;5028954;28;20294;-73
2023/05/18 07:00:13;;;;;;;6.18;4.00;;;;;;;9.58;66.22;99717.25;5028933;28;20361;-73
2023/05/18 07:02:42;;;;;;;8.23;4.03;;;;;;;9.21;66.33;99676.56;5029024;28;20302;-73
2023/05/18 07:05:09;;;;;;;13.23;4.20;;;;;;;9.57;66.26;99711.09;5027809;28;20266;-73
2023/05/18 07:07:36;;;;;;;8.07;3.92;;;;;;;9.60;66.33;99720.69;5029207;28;20049;-73
2023/05/18 07:10:05;;;;;;;11.95;5.32;;;;;;;9.59;66.26;99717.19;5027719;28;20038;-73
2023/05/18 07:12:32;;;;;;;8.77;4.25;;;;;;;9.61;66.47;99717.97;5028789;28;20038;-73
2023/05/18 07:14:59;;;;;;;6.10;3.85;;;;;;;9.62;66.49;99721.47;5029011;28;20045;-73
2023/05/18 07:17:26;;;;;;;7.82;3.90;;;;;;;9.61;66.49;99731.22;5028968;28;20046;-73
2023/05/18 07:19:53;;;;;;;10.07;3.45;;;;;;;9.31;66.42;99672.56;5027748;28;20336;-73
2023/05/18 07:22:20;;;;;;;10.45;4.10;;;;;;;9.62;66.64;99721.47;5028068;28;20264;-73
2023/05/18 07:24:46;;;;;;;9.85;3.88;;;;;;;9.63;66.18;99721.41;5028471;28;20065;-73
2023/05/18 07:27:15;;;;;;;9.73;4.25;;;;;;;9.62;66.27;99721.47;5028280;28;20053;-73
2023/05/18 07:29:41;;;;;;;6.85;3.42;;;;;;;9.61;66.21;99728.56;5028464;28;20109;-73
2023/05/18 07:32:08;;;;;;;14.63;5.03;;;;;;;9.64;66.24;99724.91;5027275;28;20356;-73
2023/05/18 07:34:35;;;;;;;7.82;3.75;;;;;;;9.27;66.25;99671.00;5028643;28;20222;-74
2023/05/18 07:37:02;;;;;;;7.47;3.78;;;;;;;9.67;66.26;99742.44;5028049;28;20053;-73
2023/05/18 07:39:29;;;;;;;8.15;3.63;;;;;;;9.67;66.26;99742.44;5028496;28;20294;-73
2023/05/18 07:41:56;;;;;;;8.20;3.88;;;;;;;9.69;66.29;99730.00;5028182;28;20042;-73
2023/05/18 07:44:24;;;;;;;9.13;3.83;;;;;;;9.68;66.31;99731.78;5028204;28;20050;-73
2023/05/18 07:46:51;;;;;;;13.77;4.53;;;;;;;9.69;66.30;99730.00;5027976;28;20037;-73
2023/05/18 07:49:18;;;;;;;5.90;3.38;;;;;;;9.68;66.53;99731.78;5028281;28;20352;-73
2023/05/18 07:51:44;;;;;;;7.22;3.58;;;;;;;9.69;66.55;99722.91;5027825;28;20059;-73
2023/05/18 07:54:11;;;;;;;10.30;3.90;;;;;;;9.58;66.35;99709.31;5027492;28;20037;-73
2023/05/18 07:56:38;;;;;;;7.80;4.50;;;;;;;9.71;66.38;99728.16;5027692;28;20121;-73
2023/05/18 07:59:05;;;;;;;8.55;3.95;;;;;;;9.73;66.33;99734.22;5027293;28;20324;-73
2023/05/18 08:01:33;;;;;;;8.57;3.65;;;;;;;9.74;66.32;99730.66;5028054;28;20068;-73
2023/05/18 08:04:00;;;;;;;9.00;4.38;;;;;;;9.73;66.35;99727.16;5027510;28;20042;-73
2023/05/18 08:06:27;;;;;;;13.02;4.40;;;;;;;9.73;66.23;99727.16;5027965;28;20054;-73
2023/05/18 08:08:55;;;;;;;9.68;3.88;;;;;;;9.70;66.19;99727.28;5026713;28;20072;-73
2023/05/18 08:11:22;;;;;;;7.60;4.40;;;;;;;9.70;66.02;99732.56;5027339;28;20038;-73
2023/05/18 08:13:49;;;;;;;7.05;3.97;;;;;;;9.70;66.05;99743.16;5027297;28;20080;-73
2023/05/18 08:16:16;;;;;;;9.32;4.50;;;;;;;8.92;66.06;99600.28;5026483;28;20037;-73
2023/05/18 08:18:44;;;;;;;7.50;3.42;;;;;;;9.72;66.31;99733.38;5010306;28;20034;-73
2023/05/18 08:21:10;;;;;;;6.57;3.95;;;;;;;9.73;66.11;99732.44;5026095;28;20053;-73
2023/05/18 08:23:37;;;;;;;8.80;4.15;;;;;;;9.76;66.11;99740.25;5027111;28;20044;-73
2023/05/18 08:26:04;;;;;;;12.32;3.90;;;;;;;9.78;66.05;99732.22;5026276;28;20056;-73
2023/05/18 08:28:31;;;;;;;11.20;5.57;;;;;;;9.80;65.83;99741.81;5027348;28;20053;-73
2023/05/18 08:30:58;;;;;;;7.22;4.82;;;;;;;9.79;65.75;99737.44;5026988;28;20065;-73
2023/05/18 08:33:25;;;;;;;8.35;4.20;;;;;;;9.82;65.87;99741.75;5026989;28;20053;-73
2023/05/18 08:35:53;;;;;;;12.15;4.80;;;;;;;9.82;65.75;99745.25;5026962;28;20050;-73
2023/05/18 08:38:20;;;;;;;10.15;5.05;;;;;;;9.83;65.78;99738.16;5027057;28;20201;-73
2023/05/18 08:40:53;;;;;;;9.13;4.32;;;;;;;9.81;65.03;99735.59;5027158;28;20053;-73
2023/05/18 08:43:26;;;;;;;8.48;4.60;;;;;;;9.82;65.41;99741.75;5026983;28;20061;-73
2023/05/18 08:46:01;;;;;;;10.05;5.95;;;;;;;9.60;64.83;99747.16;5025867;28;20049;-74
2023/05/18 08:48:31;;;;;;;7.82;4.65;;;;;;;9.82;65.32;99747.91;5025851;28;20049;-74
2023/05/18 08:51:02;;;;;;;9.00;6.03;;;;;;;9.84;64.91;99745.19;5026822;28;20294;-74
2023/05/18 08:53:30;;;;;;;10.48;5.25;;;;;;;9.38;65.22;99677.59;5026837;28;20068;-73
2023/05/18 08:56:00;;;;;;;7.85;4.78;;;;;;;9.85;64.82;99742.47;5027063;28;20213;-73
2023/05/18 08:58:34;;;;;;;8.18;4.53;;;;;;;9.85;64.80;99742.47;5026782;28;20041;-72
2023/05/18 09:01:01;;;;;;;8.82;4.72;;;;;;;9.87;65.41;99745.03;5026532;28;20363;-72
2023/05/18 09:03:29;;;;;;;8.20;3.72;;;;;;;9.89;65.09;99744.03;5026884;28;20041;-72
2023/05/18 09:05:59;;;;;;;9.38;4.60;;;;;;;9.91;65.18;99744.84;5026976;28;20340;-74
2023/05/18 09:08:28;;;;;;;9.88;4.93;;;;;;;9.94;65.11;99749.97;5025574;28;20046;-73
2023/05/18 09:10:57;;;;;;;7.47;3.90;;;;;;;9.94;65.11;99738.53;5025486;28;20065;-74
2023/05/18 09:13:25;;;;;;;12.90;5.03;;;;;;;9.94;64.98;99741.19;5026869;28;20065;-73
2023/05/18 09:15:52;;;;;;;8.90;4.30;;;;;;;9.95;64.92;99741.09;5025439;28;20046;-74
2023/05/18 09:18:19;;;;;;;12.63;5.13;;;;;;;9.94;64.96;99742.03;5026466;28;20046;-73
2023/05/18 09:20:46;;;;;;;10.13;4.70;;;;;;;9.95;65.12;99737.59;5025897;28;20048;-74
2023/05/18 09:23:15;;;;;;;10.55;5.13;;;;;;;9.96;64.92;99736.69;5026335;28;20054;-73
2023/05/18 09:25:45;;;;;;;8.32;3.72;;;;;;;9.95;64.75;99738.47;5025137;28;20038;-74
2023/05/18 09:28:13;;;;;;;8.30;4.30;;;;;;;9.98;64.88;99741.91;5026273;28;20049;-74
2023/05/18 09:30:41;;;;;;;8.30;4.85;;;;;;;10.00;64.84;99742.69;5026004;28;20053;-74
2023/05/18 09:33:16;;;;;;;10.73;4.63;;;;;;;10.01;64.20;99752.34;5025122;28;20302;-74
2023/05/18 09:35:44;;;;;;;9.52;4.45;;;;;;;10.02;64.82;99738.19;5026510;28;20057;-74
2023/05/18 09:38:12;;;;;;;9.20;4.88;;;;;;;10.01;64.86;99741.75;5026411;28;20042;-73
2023/05/18 09:40:45;;;;;;;9.90;4.47;;;;;;;10.01;64.45;99747.06;5026129;28;20209;-74
2023/05/18 09:43:12;;;;;;;9.07;3.83;;;;;;;9.49;64.76;99668.25;5025729;28;20041;-72
2023/05/18 09:45:43;;;;;;;9.55;4.47;;;;;;;10.02;64.83;99751.41;5025809;28;20088;-72
2023/05/18 09:48:10;;;;;;;8.88;4.78;;;;;;;10.02;64.91;99744.34;5025994;28;20049;-72
2023/05/18 09:50:38;;;;;;;8.75;4.78;;;;;;;10.05;64.89;99738.03;5026097;28;20187;-73
2023/05/18 09:53:08;;;;;;;9.20;4.97;;;;;;;9.90;64.67;99715.78;5024702;28;20349;-74
2023/05/18 09:55:38;;;;;;;9.82;5.65;;;;;;;10.08;64.83;99743.19;5025489;28;20037;-73
2023/05/18 09:58:09;;;;;;;10.13;5.00;;;;;;;8.01;64.63;99389.50;5025426;28;20052;-74
2023/05/18 10:00:38;;;;;;;12.10;4.90;;;;;;;9.97;64.91;99725.16;5025814;28;20045;-74
2023/05/18 10:03:16;;;;;;;9.43;4.90;;;;;;;10.12;64.99;99747.41;5025891;28;20057;-73
2023/05/18 10:05:42;;;;;;;15.82;5.55;;;;;;;10.14;64.87;99753.50;5024712;28;20298;-74
2023/05/18 10:08:11;;;;;;;9.85;5.85;;;;;;;10.15;65.00;99747.25;5026073;28;20049;-74
2023/05/18 10:10:39;;;;;;;16.17;5.88;;;;;;;10.15;64.73;99740.16;5025738;28;20092;-72
2023/05/18 10:13:07;;;;;;;8.23;4.07;;;;;;;10.17;64.68;99743.59;5025762;28;20167;-71
2023/05/18 10:15:36;;;;;;;8.60;4.72;;;;;;;10.17;64.93;99751.56;5026029;28;20061;-72
2023/05/18 10:18:07;;;;;;;17.02;6.40;;;;;;;10.19;64.64;99746.19;5026952;28;20049;-72
2023/05/18 10:20:36;;;;;;;14.50;6.78;;;;;;;10.19;64.91;99754.13;5030007;28;20060;-72
2023/05/18 10:23:06;;;;;;;11.05;5.93;;;;;;;9.82;64.54;99692.31;5029201;28;20133;-73
2023/05/18 10:25:35;;;;;;;9.60;5.47;;;;;;;10.20;64.86;99745.25;5029859;28;20057;-72
2023/05/18 10:28:10;;;;;;;9.73;4.95;;;;;;;10.21;64.27;99744.31;5029894;28;20069;-71
2023/05/18 10:30:40;;;;;;;7.75;4.95;;;;;;;10.20;64.60;99742.59;5028461;28;20320;-72
2023/05/18 10:33:07;;;;;;;8.30;4.63;;;;;;;10.21;64.82;99746.97;5028376;28;20046;-73
2023/05/18 10:35:36;;;;;;;8.13;4.72;;;;;;;10.22;64.59;99738.09;5028404;28;20044;-73
2023/05/18 10:38:05;;;;;;;7.32;4.53;;;;;;;10.23;64.52;99743.31;5028365;28;20072;-74
2023/05/18 10:40:34;;;;;;;11.90;5.07;;;;;;;10.10;64.63;99714.84;5029613;28;20049;-74
2023/05/18 10:43:03;;;;;;;9.30;5.03;;;;;;;10.26;64.85;99735.22;5029255;28;20049;-74
2023/05/18 10:45:33;;;;;;;7.38;4.65;;;;;;;9.90;64.55;99676.06;5028997;28;20046;-74
2023/05/18 10:48:02;;;;;;;9.75;4.78;;;;;;;10.30;64.58;99743.88;5029119;28;20053;-74
2023/05/18 10:50:31;;;;;;;9.75;5.07;;;;;;;10.31;64.83;99744.75;5028790;28;20073;-74
2023/05/18 10:52:59;;;;;;;11.18;4.60;;;;;;;10.27;64.79;99731.66;5029414;28;20216;-74
2023/05/18 10:55:28;;;;;;;9.57;5.18;;;;;;;10.30;64.62;99733.28;5028002;28;20301;-74
2023/05/18 10:58:01;;;;;;;8.20;4.15;;;;;;;10.32;64.44;99736.72;5029050;28;20245;-74
2023/05/18 11:00:28;;;;;;;7.68;3.97;;;;;;;10.32;64.70;99734.06;5028692;28;20059;-74
2023/05/18 11:02:57;;;;;;;9.93;4.82;;;;;;;10.34;64.59;99734.00;5028609;28;20102;-74
2023/05/18 11:05:25;;;;;;;10.30;4.97;;;;;;;10.36;64.72;99732.13;5028461;28;20046;-74
2023/05/18 11:08:00;;;;;;;9.23;4.45;;;;;;;9.99;64.26;99670.34;5027630;28;20046;-73
2023/05/18 11:10:33;;;;;;;10.63;5.18;;;;;;;10.39;64.25;99730.19;5028446;28;20034;-73
2023/05/18 11:13:01;;;;;;;8.15;4.45;;;;;;;10.40;64.53;99736.34;5027600;28;20042;-75
2023/05/18 11:16:03;;;;;;;9.73;4.78;;;;;;;10.41;63.95;99736.28;5027531;28;20045;-74
2023/05/18 11:18:38;;;;;;;7.90;5.00;;;;;;;10.26;64.42;99713.19;5028653;28;20049;-75
2023/05/18 11:21:18;;;;;;;14.18;6.07;;;;;;;10.41;64.66;99741.56;5028726;28;20074;-74
2023/05/18 11:24:13;;;;;;;9.63;5.00;;;;;;;10.42;64.11;99735.34;5028289;28;20095;-75
2023/05/18 11:26:41;;;;;;;10.63;5.18;;;;;;;10.43;64.88;99744.16;5028489;28;20109;-75
2023/05/18 11:29:17;;;;;;;11.27;4.45;;;;;;;10.43;64.44;99739.72;5026504;28;20046;-74
2023/05/18 11:31:44;;;;;;;10.60;4.80;;;;;;;10.45;64.78;99742.28;5027452;28;20050;-75
2023/05/18 11:34:37;;;;;;;10.00;5.03;;;;;;;10.48;64.25;99744.78;5027528;28;20050;-73
2023/05/18 11:37:05;;;;;;;10.10;4.93;;;;;;;10.49;64.82;99742.06;5018662;28;20252;-74
2023/05/18 11:39:33;;;;;;;9.80;5.38;;;;;;;10.49;64.73;99752.66;5028309;28;20249;-74
2023/05/18 11:42:00;;;;;;;8.75;4.13;;;;;;;10.54;64.84;99741.84;5028465;28;20270;-74
2023/05/18 11:44:29;;;;;;;9.73;5.53;;;;;;;10.54;64.77;99739.19;5028409;28;20104;-75